Time;durP1;ratioP1;P1;durP2;ratioP2;P2;SDS_P1;SDS_P2;PMS_P1;PMS_P2;Temp;Humidity;BMP_temperature;BMP_pressure;BME280_temperature;BME280_humidity;BME280_pressure;Samples;Min_cycle;Max_cycle;Signal;HPM_P1;HPM_P2
2022/01/15 00:02:58;;;;;;;8.90;4.07;;;22.30;39.90;;;;;;6259142;27;80292;-74
2022/01/15 00:05:59;;;;;;;10.02;4.63;;;22.30;39.90;;;;;;6260117;27;80005;-74
2022/01/15 00:08:59;;;;;;;8.25;3.35;;;22.30;39.90;;;;;;6260251;27;80914;-73
2022/01/15 00:12:00;;;;;;;8.15;3.97;;;22.30;39.90;;;;;;6258299;27;80595;-74
2022/01/15 00:15:01;;;;;;;6.95;3.35;;;22.30;39.90;;;;;;6259765;27;81252;-75
2022/01/15 00:18:06;;;;;;;8.90;3.97;;;22.30;40.50;;;;;;6255798;27;80588;-75
2022/01/15 00:21:06;;;;;;;8.10;4.27;;;22.20;39.80;;;;;;6256555;27;80660;-75
2022/01/15 00:24:07;;;;;;;8.68;4.15;;;22.20;39.80;;;;;;6258143;27;81513;-76
2022/01/15 00:27:07;;;;;;;9.25;4.22;;;22.30;39.80;;;;;;6261377;28;80678;-75
2022/01/15 00:30:08;;;;;;;8.38;4.28;;;22.20;39.60;;;;;;6259243;27;82127;-74
2022/01/15 00:33:10;;;;;;;7.97;3.92;;;22.20;39.60;;;;;;6258605;27;81107;-75
2022/01/15 00:36:10;;;;;;;10.35;4.32;;;22.20;39.60;;;;;;6257764;27;80340;-73
2022/01/15 00:39:11;;;;;;;9.45;4.57;;;22.20;39.60;;;;;;6259343;27;82612;-74
2022/01/15 00:42:11;;;;;;;9.00;4.20;;;22.20;39.50;;;;;;6259346;27;80417;-75
2022/01/15 00:45:13;;;;;;;8.43;4.28;;;22.20;39.60;;;;;;6256626;27;81653;-74
2022/01/15 00:48:14;;;;;;;8.68;4.35;;;22.20;39.40;;;;;;6240832;27;80648;-75
2022/01/15 00:51:14;;;;;;;7.25;4.63;;;22.20;39.40;;;;;;6257744;27;81921;-74
2022/01/15 00:54:15;;;;;;;9.93;4.05;;;22.20;39.40;;;;;;6260499;27;81208;-74
2022/01/15 00:57:15;;;;;;;10.15;4.82;;;22.20;39.40;;;;;;6258064;27;80606;-73
2022/01/15 01:00:17;;;;;;;13.60;4.88;;;22.20;39.40;;;;;;6259843;27;80368;-74
2022/01/15 01:03:18;;;;;;;11.55;4.30;;;22.20;39.40;;;;;;6258298;27;80741;-74
2022/01/15 01:06:19;;;;;;;10.27;4.55;;;22.20;39.40;;;;;;6259285;27;80963;-73
2022/01/15 01:09:20;;;;;;;10.23;4.82;;;22.20;39.30;;;;;;6258374;27;81596;-74
2022/01/15 01:25:43;;;;;;;11.98;5.38;;;22.10;39.10;;;;;;6248547;27;80338;-73
2022/01/15 01:28:46;;;;;;;10.27;4.70;;;22.10;39.10;;;;;;6248938;27;80951;-75
2022/01/15 01:35:07;;;;;;;9.95;4.45;;;22.10;39.00;;;;;;6248293;27;81075;-73
2022/01/15 01:38:14;;;;;;;11.18;5.78;;;22.10;39.00;;;;;;6253163;27;80462;-73
2022/01/15 01:41:19;;;;;;;8.85;4.90;;;22.10;39.00;;;;;;6256008;27;80414;-74
2022/01/15 01:44:20;;;;;;;11.73;4.73;;;22.10;39.00;;;;;;6245528;27;81170;-74
2022/01/15 01:47:29;;;;;;;13.55;4.95;;;22.10;39.00;;;;;;6258304;27;80913;-73
2022/01/15 01:50:30;;;;;;;12.48;4.95;;;22.10;39.00;;;;;;6258108;27;80593;-75
2022/01/15 01:53:30;;;;;;;8.70;4.18;;;22.10;39.10;;;;;;6259271;27;80517;-76
2022/01/15 01:56:31;;;;;;;11.43;5.40;;;22.10;39.00;;;;;;6252473;27;80584;-76
2022/01/15 01:59:32;;;;;;;9.98;4.65;;;22.10;39.00;;;;;;6243531;28;80837;-77
2022/01/15 02:02:33;;;;;;;9.60;5.22;;;22.10;39.00;;;;;;6259936;27;83467;-74
2022/01/15 02:05:33;;;;;;;13.32;5.22;;;22.10;39.00;;;;;;6261955;27;80563;-75
2022/01/15 02:08:35;;;;;;;12.93;5.93;;;22.10;39.00;;;;;;6260760;28;81589;-76
2022/01/15 02:11:38;;;;;;;11.05;4.78;;;22.10;39.00;;;;;;6261603;27;80411;-76
2022/01/15 02:14:39;;;;;;;13.25;5.65;;;22.10;38.90;;;;;;6257852;27;81283;-74
2022/01/15 02:17:39;;;;;;;11.20;5.60;;;22.10;38.90;;;;;;6257341;27;80542;-74
2022/01/15 02:23:59;;;;;;;10.60;5.45;;;22.10;38.80;;;;;;6250410;28;82727;-74
2022/01/15 02:26:59;;;;;;;12.55;5.03;;;22.10;38.80;;;;;;6255821;27;82599;-75
2022/01/15 02:30:03;;;;;;;13.13;5.82;;;22.10;38.80;;;;;;6258976;28;82044;-74
2022/01/15 02:33:04;;;;;;;12.38;6.00;;;22.10;38.70;;;;;;6262345;27;80219;-74
2022/01/15 02:36:04;;;;;;;8.15;4.68;;;22.00;38.70;;;;;;6259343;27;81659;-73
2022/01/15 02:39:05;;;;;;;13.40;5.57;;;22.10;38.70;;;;;;6260887;27;80456;-75
2022/01/15 02:42:05;;;;;;;11.60;5.55;;;22.00;38.60;;;;;;6262277;27;81822;-74
2022/01/15 02:45:08;;;;;;;11.55;5.47;;;22.00;38.60;;;;;;6261367;27;83026;-73
2022/01/15 02:48:08;;;;;;;10.77;5.72;;;22.00;38.60;;;;;;6259769;27;81836;-73
2022/01/15 02:51:09;;;;;;;10.93;5.70;;;22.00;38.60;;;;;;6263124;27;80360;-73
2022/01/15 02:54:09;;;;;;;8.07;5.03;;;22.00;38.60;;;;;;6259560;27;80203;-73
2022/01/15 02:57:10;;;;;;;15.00;6.35;;;22.00;38.60;;;;;;6263170;27;81220;-73
2022/01/15 03:00:10;;;;;;;11.32;5.13;;;22.00;38.60;;;;;;6259941;27;80574;-73
2022/01/15 03:03:11;;;;;;;11.05;5.07;;;22.00;38.60;;;;;;6261154;27;80726;-74
2022/01/15 03:06:11;;;;;;;11.57;5.68;;;22.00;38.60;;;;;;6258651;27;80419;-76
2022/01/15 03:09:12;;;;;;;10.27;5.38;;;22.00;38.60;;;;;;6262081;27;80951;-75
2022/01/15 03:12:12;;;;;;;12.25;5.57;;;22.00;38.60;;;;;;6256477;27;80983;-74
2022/01/15 03:15:19;;;;;;;16.05;6.00;;;22.10;39.00;;;;;;6263144;27;80399;-73
2022/01/15 03:18:19;;;;;;;13.43;5.35;;;22.00;39.50;;;;;;6246656;27;81435;-73
2022/01/15 03:21:20;;;;;;;13.35;5.85;;;22.10;39.70;;;;;;6248702;28;81648;-74
2022/01/15 03:24:20;;;;;;;10.02;5.20;;;22.10;39.10;;;;;;6265341;27;81817;-73
2022/01/15 03:27:23;;;;;;;13.48;5.53;;;22.10;38.50;;;;;;6261742;27;81702;-74
2022/01/15 03:30:24;;;;;;;11.57;5.70;;;22.20;38.30;;;;;;6256186;28;80765;-73
2022/01/15 03:33:24;;;;;;;13.90;5.15;;;22.20;38.10;;;;;;6262953;27;83030;-73
2022/01/15 03:36:25;;;;;;;11.20;5.47;;;22.20;37.80;;;;;;6244106;28;80438;-74
2022/01/15 03:39:25;;;;;;;12.00;5.43;;;22.20;37.60;;;;;;6243354;28;83465;-73
2022/01/15 03:42:26;;;;;;;10.52;4.40;;;22.30;37.40;;;;;;6260842;27;80532;-74
2022/01/15 03:45:27;;;;;;;13.88;5.07;;;22.30;37.20;;;;;;6246102;27;80263;-73
2022/01/15 03:48:27;;;;;;;9.93;5.20;;;22.30;37.00;;;;;;6261076;27;80528;-73
2022/01/15 03:51:28;;;;;;;11.70;4.93;;;22.40;37.00;;;;;;6257848;27;80349;-73
2022/01/15 03:54:28;;;;;;;14.00;6.03;;;22.40;36.80;;;;;;6259464;27;80472;-74
2022/01/15 03:57:29;;;;;;;11.27;5.20;;;22.40;36.60;;;;;;6259937;27;81641;-74
2022/01/15 04:00:29;;;;;;;12.82;5.43;;;22.40;36.50;;;;;;6258254;27;81287;-76
2022/01/15 04:03:30;;;;;;;8.50;4.80;;;22.50;36.40;;;;;;6253480;27;80420;-75
2022/01/15 04:06:30;;;;;;;11.70;4.93;;;22.50;36.30;;;;;;6257558;27;81728;-73
2022/01/15 04:09:31;;;;;;;14.70;6.25;;;22.50;36.80;;;;;;6259850;27;80307;-73
2022/01/15 04:12:31;;;;;;;10.23;5.03;;;22.50;36.10;;;;;;6257489;27;80408;-73
2022/01/15 04:15:32;;;;;;;13.90;5.75;;;22.50;36.00;;;;;;6256085;28;80582;-73
2022/01/15 04:18:39;;;;;;;10.70;5.05;;;22.50;35.90;;;;;;6257308;28;81524;-74
2022/01/15 04:21:40;;;;;;;9.88;5.13;;;22.60;36.00;;;;;;6258815;27;80634;-73
2022/01/15 04:24:41;;;;;;;11.43;5.20;;;22.60;35.90;;;;;;6259687;27;80568;-73
2022/01/15 04:27:43;;;;;;;11.77;5.18;;;22.60;35.80;;;;;;6254280;27;80458;-73
2022/01/15 04:30:47;;;;;;;12.77;5.35;;;22.60;35.80;;;;;;6259403;27;80572;-73
2022/01/15 04:33:48;;;;;;;12.30;5.15;;;22.60;35.80;;;;;;6257227;27;80591;-73
2022/01/15 04:36:49;;;;;;;9.73;5.22;;;22.60;35.70;;;;;;6258657;27;80757;-74
2022/01/15 04:39:49;;;;;;;9.70;4.63;;;22.70;35.60;;;;;;6257029;28;81578;-72
2022/01/15 04:42:50;;;;;;;10.80;5.40;;;22.60;35.70;;;;;;6252654;28;81196;-73
2022/01/15 04:45:50;;;;;;;13.20;5.22;;;22.60;35.60;;;;;;6259597;27;80435;-71
2022/01/15 04:48:51;;;;;;;15.18;5.25;;;22.70;35.60;;;;;;6259406;27;80547;-79
2022/01/15 04:51:51;;;;;;;13.15;5.10;;;22.70;35.50;;;;;;6259590;27;80352;-81
2022/01/15 04:54:52;;;;;;;16.45;5.38;;;22.70;35.60;;;;;;6260742;27;81613;-79
2022/01/15 04:57:52;;;;;;;13.27;5.32;;;22.70;35.60;;;;;;6258738;27;80719;-77
2022/01/15 05:00:53;;;;;;;9.98;4.63;;;22.70;35.60;;;;;;6260350;27;80168;-77
2022/01/15 05:03:53;;;;;;;8.27;4.80;;;22.70;35.60;;;;;;6259428;27;80663;-77
2022/01/15 05:06:54;;;;;;;12.65;5.97;;;22.70;35.60;;;;;;6257448;27;80298;-80
2022/01/15 05:09:54;;;;;;;10.52;5.20;;;22.70;35.60;;;;;;6258331;28;80798;-80
2022/01/15 05:13:00;;;;;;;8.77;4.45;;;22.70;35.60;;;;;;6257353;27;85794;-75
2022/01/15 05:16:01;;;;;;;12.77;5.63;;;22.80;35.60;;;;;;6258740;27;81539;-78
2022/01/15 05:19:01;;;;;;;8.40;4.72;;;22.80;35.60;;;;;;6244514;28;80480;-79
2022/01/15 05:22:02;;;;;;;11.18;4.80;;;22.80;35.40;;;;;;6249673;27;80898;-78
2022/01/15 05:25:02;;;;;;;10.82;5.80;;;22.80;35.60;;;;;;6257708;27;80499;-70
2022/01/15 05:28:03;;;;;;;10.55;4.97;;;22.80;35.50;;;;;;6253971;28;82254;-71
2022/01/15 05:31:04;;;;;;;13.25;5.30;;;22.80;35.60;;;;;;6248531;27;80502;-71
2022/01/15 05:34:04;;;;;;;12.82;5.80;;;22.80;35.70;;;;;;6252826;28;80331;-70
2022/01/15 05:37:05;;;;;;;12.85;5.47;;;22.80;35.70;;;;;;6246059;27;81829;-71
2022/01/15 05:40:05;;;;;;;14.82;6.20;;;22.70;35.80;;;;;;6257940;27;82125;-69
2022/01/15 05:43:06;;;;;;;11.85;5.20;;;22.80;36.00;;;;;;6257622;27;81271;-69
2022/01/15 05:46:06;;;;;;;8.85;5.18;;;22.80;36.00;;;;;;6259031;27;80447;-66
2022/01/15 05:49:07;;;;;;;12.25;5.60;;;22.80;36.00;;;;;;6258368;27;81001;-69
2022/01/15 05:52:07;;;;;;;10.95;5.50;;;22.80;36.50;;;;;;6256314;27;80685;-69
2022/01/15 05:55:08;;;;;;;9.05;4.53;;;22.80;36.80;;;;;;6256603;27;82701;-70
2022/01/15 05:58:08;;;;;;;9.27;5.18;;;22.90;37.40;;;;;;6253562;27;81338;-71
2022/01/15 06:01:09;;;;;;;11.43;5.60;;;22.90;37.40;;;;;;6264589;27;80697;-72
2022/01/15 06:04:09;;;;;;;11.27;5.38;;;22.80;37.30;;;;;;6256347;27;81735;-71
2022/01/15 06:07:10;;;;;;;11.65;5.88;;;22.80;37.30;;;;;;6252587;27;80809;-75
2022/01/15 06:10:10;;;;;;;11.43;5.55;;;22.80;37.60;;;;;;6259899;27;80663;-71
2022/01/15 06:13:11;;;;;;;11.23;6.03;;;22.80;37.50;;;;;;6257523;27;80451;-71
2022/01/15 06:16:11;;;;;;;9.60;5.53;;;22.90;37.80;;;;;;6256803;27;82036;-71
2022/01/15 06:19:12;;;;;;;11.68;5.60;;;22.80;37.70;;;;;;6257569;27;81583;-72
2022/01/15 06:22:12;;;;;;;13.57;6.05;;;22.80;38.00;;;;;;6258160;27;81067;-70
2022/01/15 06:25:13;;;;;;;11.02;6.07;;;22.80;38.80;;;;;;6255359;27;81643;-70
2022/01/15 06:28:13;;;;;;;15.02;6.75;;;22.80;39.30;;;;;;6255313;27;80456;-71
2022/01/15 06:31:15;;;;;;;11.30;6.53;;;22.80;39.50;;;;;;6248982;27;80983;-72
2022/01/15 06:34:16;;;;;;;11.13;6.20;;;22.80;39.50;;;;;;6254279;27;80593;-71
2022/01/15 06:37:16;;;;;;;15.63;7.32;;;22.80;40.00;;;;;;6254279;28;81966;-70
2022/01/15 06:40:17;;;;;;;17.30;7.93;;;22.80;40.80;;;;;;6253554;27;81262;-72
2022/01/15 06:43:17;;;;;;;14.52;7.68;;;22.80;41.70;;;;;;6257040;27;80395;-72
2022/01/15 06:46:18;;;;;;;27.77;8.55;;;22.80;40.00;;;;;;6255324;28;80417;-73
2022/01/15 06:49:18;;;;;;;16.42;9.10;;;22.80;40.40;;;;;;6262330;27;80407;-69
2022/01/15 06:52:21;;;;;;;24.77;9.25;;;22.80;41.10;;;;;;6261588;27;80405;-73
2022/01/15 06:55:21;;;;;;;18.42;9.65;;;22.70;41.00;;;;;;6262058;27;82904;-72
2022/01/15 06:58:22;;;;;;;24.60;10.45;;;22.70;41.90;;;;;;6260115;27;80436;-71
2022/01/15 07:01:23;;;;;;;14.00;8.32;;;22.70;41.90;;;;;;6257767;27;83857;-71
2022/01/15 07:04:24;;;;;;;15.00;8.35;;;22.70;41.80;;;;;;6256488;27;83016;-73
2022/01/15 07:07:24;;;;;;;15.45;8.77;;;22.70;41.60;;;;;;6244272;27;80897;-71
2022/01/15 07:10:25;;;;;;;20.45;9.38;;;22.70;41.30;;;;;;6257378;27;80807;-73
2022/01/15 07:13:26;;;;;;;14.82;8.68;;;22.70;41.40;;;;;;6261563;27;81219;-73
2022/01/15 07:16:27;;;;;;;18.98;8.95;;;22.70;41.20;;;;;;6258962;27;81629;-72
2022/01/15 07:19:27;;;;;;;16.65;9.68;;;22.70;41.00;;;;;;6256768;27;80729;-74
2022/01/15 07:22:28;;;;;;;19.88;9.98;;;22.70;40.90;;;;;;6251560;27;81557;-74
2022/01/15 07:25:28;;;;;;;17.27;8.40;;;22.70;41.20;;;;;;6254835;27;82901;-73
2022/01/15 07:28:30;;;;;;;12.15;7.20;;;22.60;42.40;;;;;;6255407;28;83407;-71
2022/01/15 07:31:31;;;;;;;13.48;6.15;;;22.50;44.40;;;;;;6255885;27;81210;-70
2022/01/15 07:34:31;;;;;;;6.95;4.97;;;22.40;45.40;;;;;;6256160;27;81195;-74
2022/01/15 07:37:32;;;;;;;10.68;5.53;;;22.40;46.20;;;;;;6259331;27;82215;-72
2022/01/15 07:40:33;;;;;;;11.13;4.97;;;22.30;47.40;;;;;;6257792;27;81390;-69
2022/01/15 07:43:33;;;;;;;9.85;4.82;;;22.30;47.40;;;;;;6257560;27;80546;-71
2022/01/15 07:46:34;;;;;;;8.80;4.40;;;22.20;47.60;;;;;;6256677;27;80857;-72
2022/01/15 07:49:34;;;;;;;9.30;5.32;;;22.20;48.30;;;;;;6256987;27;80615;-71
2022/01/15 07:52:35;;;;;;;8.27;5.13;;;22.20;46.50;;;;;;6254240;27;80439;-69
2022/01/15 07:55:35;;;;;;;8.38;5.05;;;22.10;45.90;;;;;;6255894;27;81276;-70
2022/01/15 07:58:37;;;;;;;7.80;4.13;;;22.10;46.90;;;;;;6258866;27;81173;-70
2022/01/15 08:01:38;;;;;;;6.07;4.03;;;22.10;47.10;;;;;;6254123;28;80473;-70
2022/01/15 08:04:38;;;;;;;12.10;3.97;;;22.10;47.50;;;;;;6256203;28;80604;-71
2022/01/15 08:07:40;;;;;;;7.53;3.70;;;22.10;47.40;;;;;;6255159;27;80443;-71
2022/01/15 08:10:40;;;;;;;6.85;3.75;;;22.20;47.50;;;;;;6258654;27;80893;-68
2022/01/15 08:13:41;;;;;;;6.78;3.85;;;22.30;47.50;;;;;;6259128;27;81024;-68
2022/01/15 08:16:41;;;;;;;8.38;3.90;;;22.30;47.30;;;;;;6255384;27;81345;-73
2022/01/15 08:19:42;;;;;;;7.70;3.33;;;22.30;47.30;;;;;;6255163;27;82011;-70
2022/01/15 08:22:43;;;;;;;8.80;3.83;;;22.30;48.30;;;;;;6252557;27;80808;-69
2022/01/15 08:25:44;;;;;;;7.47;3.22;;;22.30;47.80;;;;;;6254165;27;80977;-72
2022/01/15 08:28:45;;;;;;;6.93;3.55;;;22.50;47.30;;;;;;6257322;27;81656;-70
2022/01/15 08:31:45;;;;;;;7.90;3.78;;;22.70;46.40;;;;;;6252049;27;81724;-72
2022/01/15 08:34:46;;;;;;;9.13;3.50;;;22.80;45.80;;;;;;6256052;27;80682;-69
2022/01/15 08:37:46;;;;;;;9.63;4.15;;;23.00;45.60;;;;;;6259302;27;82196;-71
2022/01/15 08:40:47;;;;;;;7.50;3.78;;;23.10;45.00;;;;;;6257665;27;80437;-73
2022/01/15 08:43:48;;;;;;;9.13;4.00;;;23.20;44.80;;;;;;6257388;27;80126;-71
2022/01/15 08:46:48;;;;;;;8.32;3.95;;;23.20;44.40;;;;;;6259819;27;80380;-68
2022/01/15 08:49:49;;;;;;;10.50;4.43;;;23.30;44.20;;;;;;6257256;27;79993;-69
2022/01/15 08:52:49;;;;;;;14.27;4.80;;;23.40;44.10;;;;;;6257923;27;80693;-70
2022/01/15 08:55:50;;;;;;;7.45;4.47;;;23.50;44.00;;;;;;6257192;27;80484;-73
2022/01/15 08:58:50;;;;;;;10.77;4.47;;;23.50;44.20;;;;;;6257069;27;80332;-68
2022/01/15 09:01:52;;;;;;;9.43;4.10;;;23.50;44.00;;;;;;6254494;27;82661;-72
2022/01/15 09:04:53;;;;;;;9.75;4.88;;;23.50;43.50;;;;;;6249195;27;83245;-73
2022/01/15 09:07:54;;;;;;;11.10;5.93;;;23.50;43.80;;;;;;6254236;27;80538;-76
2022/01/15 09:10:55;;;;;;;12.90;6.60;;;23.50;42.90;;;;;;6251983;27;80499;-77
2022/01/15 09:13:55;;;;;;;86.82;40.72;;;23.40;40.90;;;;;;6257950;28;81882;-75
2022/01/15 09:16:56;;;;;;;150.68;73.28;;;23.30;41.20;;;;;;6254197;27;83294;-76
2022/01/15 09:19:56;;;;;;;108.97;51.00;;;23.20;38.50;;;;;;6253019;27;83660;-78
2022/01/15 09:22:57;;;;;;;87.00;42.45;;;23.10;38.80;;;;;;6254663;28;84307;-78
2022/01/15 09:25:58;;;;;;;63.80;29.38;;;23.10;38.30;;;;;;6249081;27;83118;-75
2022/01/15 09:32:18;;;;;;;207.23;98.00;;;23.00;37.40;;;;;;6249740;27;84135;-76
2022/01/15 09:35:19;;;;;;;259.73;120.53;;;23.00;37.90;;;;;;6255452;27;83405;-76
2022/01/15 09:38:19;;;;;;;219.35;99.47;;;23.00;38.00;;;;;;6251640;27;85730;-71
2022/01/15 09:41:20;;;;;;;154.88;71.22;;;22.90;37.20;;;;;;6269247;27;85722;-74
2022/01/15 09:44:21;;;;;;;116.38;54.58;;;22.90;36.50;;;;;;6246277;28;82814;-72
2022/01/15 09:47:22;;;;;;;103.90;43.72;;;22.90;36.00;;;;;;6251873;27;82860;-72
2022/01/15 09:50:22;;;;;;;68.72;31.92;;;23.00;37.10;;;;;;6247817;28;83248;-71
2022/01/15 09:53:23;;;;;;;53.60;24.83;;;23.10;37.40;;;;;;6254259;27;83562;-70
2022/01/15 09:56:23;;;;;;;42.33;19.35;;;23.10;36.30;;;;;;6246192;28;85828;-69
2022/01/15 09:59:24;;;;;;;32.88;15.80;;;23.20;36.40;;;;;;6252750;27;82833;-70
2022/01/15 10:02:24;;;;;;;32.47;14.32;;;23.20;35.60;;;;;;6254850;27;82984;-70
2022/01/15 10:05:25;;;;;;;28.50;11.73;;;23.30;35.30;;;;;;6251162;27;83616;-70
2022/01/15 10:08:27;;;;;;;23.52;10.88;;;23.30;35.50;;;;;;6254455;27;83013;-69
2022/01/15 10:11:28;;;;;;;25.90;11.13;;;23.40;35.20;;;;;;6253451;27;82991;-68
2022/01/15 10:14:29;;;;;;;22.23;9.65;;;23.50;34.80;;;;;;6233298;28;86093;-69
2022/01/15 10:17:29;;;;;;;17.73;8.23;;;23.50;35.10;;;;;;6257441;27;82899;-69
2022/01/15 10:20:30;;;;;;;22.95;9.57;;;23.60;35.30;;;;;;6260585;27;81829;-71
2022/01/15 10:23:30;;;;;;;27.85;10.32;;;23.60;33.70;;;;;;6259394;28;82100;-69
2022/01/15 10:26:35;;;;;;;17.80;8.25;;;23.60;33.50;;;;;;6255397;28;83329;-70
2022/01/15 10:29:36;;;;;;;20.93;8.73;;;23.50;34.00;;;;;;6260520;27;84381;-70
2022/01/15 10:32:36;;;;;;;18.85;7.93;;;23.40;33.30;;;;;;6262102;27;81051;-68
2022/01/15 10:35:37;;;;;;;16.88;7.95;;;23.40;33.20;;;;;;6261372;27;80447;-71
2022/01/15 10:38:38;;;;;;;15.90;7.78;;;23.40;33.20;;;;;;6261013;27;80295;-70
2022/01/15 10:41:38;;;;;;;15.80;7.35;;;23.40;32.30;;;;;;6258928;27;81465;-69
2022/01/15 10:44:39;;;;;;;14.95;7.95;;;23.40;33.40;;;;;;6254107;27;80315;-73
2022/01/15 10:47:39;;;;;;;23.35;8.60;;;23.40;32.80;;;;;;6254832;27;81642;-68
2022/01/15 10:50:40;;;;;;;20.00;8.50;;;23.30;32.20;;;;;;6259759;27;80435;-69
2022/01/15 10:53:44;;;;;;;22.65;9.25;;;23.20;32.50;;;;;;6255653;27;80767;-68
2022/01/15 10:56:48;;;;;;;23.73;8.75;;;23.20;32.70;;;;;;6261843;27;80344;-69
2022/01/15 10:59:52;;;;;;;18.20;8.70;;;23.40;32.90;;;;;;6261758;27;80873;-68
2022/01/15 11:02:57;;;;;;;15.05;7.95;;;23.50;33.00;;;;;;6260429;28;81261;-70
2022/01/15 11:05:57;;;;;;;22.55;9.43;;;23.60;33.00;;;;;;6262001;27;80649;-69
2022/01/15 11:08:58;;;;;;;24.80;10.77;;;23.70;32.70;;;;;;6261489;27;81408;-73
2022/01/15 11:12:00;;;;;;;23.52;9.98;;;23.70;32.40;;;;;;6256862;27;82665;-67
2022/01/15 11:15:01;;;;;;;27.35;10.98;;;23.70;32.10;;;;;;6254849;27;83927;-67
2022/01/15 11:18:02;;;;;;;20.90;10.82;;;23.80;32.10;;;;;;6254657;27;82966;-68
2022/01/15 11:21:02;;;;;;;19.75;9.32;;;23.90;32.50;;;;;;6255136;27;83817;-66
2022/01/15 11:24:06;;;;;;;23.05;10.73;;;23.90;32.20;;;;;;6258492;27;84156;-68
2022/01/15 11:27:06;;;;;;;22.55;10.43;;;23.90;33.00;;;;;;6253289;28;84281;-67
2022/01/15 11:30:07;;;;;;;23.33;10.18;;;24.00;33.10;;;;;;6254855;28;83545;-65
2022/01/15 11:33:07;;;;;;;20.10;11.40;;;24.00;32.70;;;;;;6257457;27;83049;-69
2022/01/15 11:36:08;;;;;;;25.67;11.25;;;24.00;32.80;;;;;;6256368;27;84113;-67
2022/01/15 11:39:09;;;;;;;23.85;11.10;;;24.00;33.40;;;;;;6256161;27;83276;-66
2022/01/15 11:42:09;;;;;;;19.30;9.43;;;24.10;33.40;;;;;;6255644;27;83368;-65
2022/01/15 11:45:10;;;;;;;25.20;9.75;;;24.10;33.30;;;;;;6257870;28;86000;-66
2022/01/15 11:48:10;;;;;;;20.67;9.80;;;24.10;32.60;;;;;;6255045;27;81877;-66
2022/01/15 11:51:11;;;;;;;29.05;9.32;;;24.10;32.70;;;;;;6259892;27;80235;-65
2022/01/15 11:54:11;;;;;;;17.00;9.23;;;24.00;32.20;;;;;;6258388;27;81936;-67
2022/01/15 11:57:12;;;;;;;20.45;9.40;;;24.00;32.20;;;;;;6259512;27;80268;-66
2022/01/15 12:00:12;;;;;;;23.33;9.88;;;24.10;32.60;;;;;;6259945;27;81139;-67
2022/01/15 12:03:13;;;;;;;21.27;8.93;;;24.10;32.30;;;;;;6258915;27;81817;-66
2022/01/15 12:06:13;;;;;;;16.15;7.82;;;24.20;32.30;;;;;;6257031;27;80568;-66
2022/01/15 12:09:14;;;;;;;25.55;9.65;;;24.20;32.30;;;;;;6255400;27;81622;-68
2022/01/15 12:12:14;;;;;;;19.95;8.43;;;24.30;32.70;;;;;;6258123;27;81096;-68
2022/01/15 12:15:17;;;;;;;25.25;9.38;;;24.40;32.50;;;;;;6257329;27;80704;-68
2022/01/15 12:18:18;;;;;;;18.85;8.18;;;24.40;32.70;;;;;;6254619;27;82448;-68
2022/01/15 12:21:18;;;;;;;15.95;7.20;;;24.40;32.70;;;;;;6256483;27;81170;-66
2022/01/15 12:24:19;;;;;;;22.75;9.23;;;24.40;32.60;;;;;;6255719;27;81894;-68
2022/01/15 12:27:20;;;;;;;23.83;8.35;;;24.40;31.50;;;;;;6255866;27;81510;-67
2022/01/15 12:30:21;;;;;;;16.52;8.13;;;24.20;31.10;;;;;;6255472;27;80531;-68
2022/01/15 12:33:21;;;;;;;16.17;7.10;;;24.30;32.70;;;;;;6253952;27;80744;-68
2022/01/15 12:36:22;;;;;;;14.90;6.70;;;24.50;32.70;;;;;;6256657;27;80948;-66
2022/01/15 12:39:22;;;;;;;13.75;5.90;;;24.60;33.40;;;;;;6256354;27;81825;-65
2022/01/15 12:42:27;;;;;;;11.10;5.95;;;24.70;33.80;;;;;;6255690;27;80682;-66
2022/01/15 12:45:28;;;;;;;13.48;5.53;;;24.80;34.00;;;;;;6254855;27;81347;-67
2022/01/15 12:48:28;;;;;;;12.25;6.40;;;24.90;34.20;;;;;;6254363;28;80339;-66
2022/01/15 12:51:31;;;;;;;13.63;6.43;;;25.10;34.30;;;;;;6254390;27;81042;-66
2022/01/15 12:54:31;;;;;;;11.77;5.80;;;25.10;34.70;;;;;;6264730;27;80701;-68
2022/01/15 12:57:32;;;;;;;9.95;5.55;;;25.30;34.90;;;;;;6253530;27;81511;-67
2022/01/15 13:00:32;;;;;;;16.75;7.00;;;25.30;34.70;;;;;;6255829;27;80522;-64
2022/01/15 13:03:33;;;;;;;11.93;5.68;;;25.50;35.10;;;;;;6255510;27;80470;-65
2022/01/15 13:06:33;;;;;;;13.55;6.28;;;25.60;34.90;;;;;;6259226;27;81000;-69
2022/01/15 13:09:34;;;;;;;14.20;6.30;;;25.70;34.60;;;;;;6252681;28;80121;-67
2022/01/15 13:12:34;;;;;;;11.77;5.38;;;26.00;34.20;;;;;;6257185;28;80610;-68
2022/01/15 13:15:35;;;;;;;15.02;6.53;;;26.30;34.10;;;;;;6257450;27;81235;-67
2022/01/15 13:18:35;;;;;;;18.38;6.30;;;26.60;33.40;;;;;;6256506;27;81752;-65
2022/01/15 13:21:36;;;;;;;15.27;6.20;;;26.90;33.60;;;;;;6258954;27;80621;-68
2022/01/15 13:24:37;;;;;;;13.48;6.38;;;27.10;33.10;;;;;;6248593;28;83444;-71
2022/01/15 13:27:37;;;;;;;17.63;7.43;;;27.20;32.40;;;;;;6256860;27;80483;-67
2022/01/15 13:30:38;;;;;;;11.20;6.38;;;27.30;32.00;;;;;;6256626;27;81422;-67
2022/01/15 13:33:38;;;;;;;14.18;6.68;;;27.30;32.00;;;;;;6257843;27;80437;-69
2022/01/15 13:36:40;;;;;;;12.90;6.55;;;27.40;31.80;;;;;;6255091;28;82388;-68
2022/01/15 13:39:41;;;;;;;14.88;7.40;;;27.30;31.40;;;;;;6251093;27;80299;-68
2022/01/15 13:42:41;;;;;;;15.27;7.22;;;27.30;31.40;;;;;;6256154;27;80258;-68
2022/01/15 13:45:43;;;;;;;13.93;6.80;;;27.20;31.40;;;;;;6258195;27;82511;-68
2022/01/15 13:48:47;;;;;;;13.30;6.72;;;27.20;31.00;;;;;;6257349;27;80523;-68
2022/01/15 13:55:07;;;;;;;12.80;6.80;;;27.00;30.80;;;;;;6261226;27;84661;-68
2022/01/15 13:58:07;;;;;;;14.27;7.53;;;26.90;31.00;;;;;;6261983;27;81900;-69
2022/01/15 14:01:08;;;;;;;15.07;7.43;;;26.80;31.00;;;;;;6259712;27;80938;-68
2022/01/15 14:04:12;;;;;;;15.40;7.38;;;26.70;31.30;;;;;;6262821;27;80917;-70
2022/01/15 14:07:17;;;;;;;15.13;7.30;;;26.60;30.50;;;;;;6263142;27;81253;-68
2022/01/15 14:10:20;;;;;;;16.90;7.63;;;26.40;30.30;;;;;;6262147;27;81652;-68
2022/01/15 14:13:21;;;;;;;13.57;7.47;;;26.30;30.40;;;;;;6261653;27;80908;-67
2022/01/15 14:16:21;;;;;;;12.00;6.50;;;26.20;30.40;;;;;;6262079;27;80411;-68
2022/01/15 14:19:38;;;;;;;17.33;8.40;;;26.10;30.40;;;;;;6260916;27;81589;-67
2022/01/15 14:22:38;;;;;;;15.20;7.45;;;25.90;30.10;;;;;;6260337;27;81245;-67
2022/01/15 14:25:40;;;;;;;15.63;7.32;;;25.70;30.00;;;;;;6262074;27;81631;-68
2022/01/15 14:28:40;;;;;;;16.30;7.75;;;25.50;30.10;;;;;;6260396;27;80397;-67
2022/01/15 14:31:41;;;;;;;18.77;7.63;;;25.40;30.30;;;;;;6261471;27;80382;-67
2022/01/15 14:34:41;;;;;;;18.45;7.82;;;25.20;30.40;;;;;;6261181;27;81961;-66
2022/01/15 14:37:42;;;;;;;15.75;7.05;;;25.00;30.60;;;;;;6255814;27;80894;-67
2022/01/15 14:40:42;;;;;;;16.33;7.72;;;24.80;30.80;;;;;;6258911;27;81939;-67
2022/01/15 14:43:43;;;;;;;15.35;7.65;;;24.60;30.80;;;;;;6260430;27;80466;-67
2022/01/15 14:46:44;;;;;;;17.73;7.47;;;24.40;31.00;;;;;;6259860;27;80694;-68
2022/01/15 14:49:44;;;;;;;16.58;8.00;;;24.30;31.20;;;;;;6259267;27;80471;-67
2022/01/15 14:52:45;;;;;;;25.60;7.78;;;24.20;31.50;;;;;;6261770;27;81478;-68
2022/01/15 14:55:45;;;;;;;18.02;7.78;;;24.10;31.40;;;;;;6261342;27;81033;-69
2022/01/15 14:58:46;;;;;;;20.40;8.48;;;23.90;31.60;;;;;;6259548;27;80316;-64
2022/01/15 15:01:46;;;;;;;17.15;7.20;;;23.90;32.00;;;;;;6247424;27;83592;-70
2022/01/15 15:04:47;;;;;;;22.17;8.50;;;23.80;32.10;;;;;;6254453;27;80782;-71
2022/01/15 15:07:48;;;;;;;21.08;7.45;;;23.80;32.30;;;;;;6259220;27;81759;-72
2022/01/15 15:10:53;;;;;;;15.68;8.43;;;23.70;32.90;;;;;;6258978;27;80562;-73
2022/01/15 15:13:54;;;;;;;17.92;7.75;;;23.70;32.90;;;;;;6260440;27;80247;-70
2022/01/15 15:16:55;;;;;;;15.90;8.20;;;23.60;33.10;;;;;;6259551;27;80510;-74
2022/01/15 15:19:55;;;;;;;20.17;8.20;;;23.60;33.30;;;;;;6261610;27;82975;-74
2022/01/15 15:22:56;;;;;;;16.90;7.80;;;23.60;33.20;;;;;;6262470;27;80472;-68
2022/01/15 15:25:56;;;;;;;19.73;9.10;;;23.60;33.30;;;;;;6259572;27;80957;-71
2022/01/15 15:28:57;;;;;;;20.42;7.95;;;23.60;33.30;;;;;;6259770;27;81037;-71
2022/01/15 15:31:57;;;;;;;15.43;8.30;;;23.60;33.30;;;;;;6260684;27;80140;-69
2022/01/15 15:34:58;;;;;;;22.98;8.95;;;23.60;33.50;;;;;;6252775;27;80658;-68
2022/01/15 15:37:58;;;;;;;24.67;9.85;;;23.60;33.50;;;;;;6260688;27;82026;-69
2022/01/15 15:40:59;;;;;;;14.98;8.35;;;23.60;33.40;;;;;;6258872;27;80452;-69
2022/01/15 15:44:00;;;;;;;17.17;8.35;;;23.60;33.70;;;;;;6257361;27;81831;-66
2022/01/15 15:47:00;;;;;;;17.17;8.43;;;23.60;34.10;;;;;;6259480;27;81083;-68
2022/01/15 15:50:01;;;;;;;21.38;8.82;;;23.60;34.60;;;;;;6259124;27;80877;-68
2022/01/15 15:53:01;;;;;;;20.05;9.07;;;23.70;35.20;;;;;;6241676;28;81802;-68
2022/01/15 15:56:02;;;;;;;24.05;9.40;;;23.60;35.60;;;;;;6259129;27;80339;-68
2022/01/15 15:59:02;;;;;;;20.08;8.80;;;23.60;35.90;;;;;;6259190;27;80716;-69